Terminal Aerodrome Forecast
Issued by NWS

Home | Current Version | Previous Version | Text Only | Print | Product List | Glossary On
Versions: 1 2 3 4 5 6 7 8 9 10 11 12 13 14 15 16 17 18 19
000
FTUS46 KOTX 211740
TAFCOE
TAF
KCOE 211740Z 2118/2218 02004KT 5SM -SNRA BR SCT008 OVC012
     FM212100 34007KT 6SM -RASN BR OVC012
     FM220100 24006KT 2SM -SN OVC010
     FM220600 23008KT 5SM -SHSN BR OVC015
     FM220800 23006KT P6SM OVC012=

USA.gov is the U.S. government's official web portal to all federal, state and local government web resources and services.